Time;durP1;ratioP1;P1;durP2;ratioP2;P2;SDS_P1;SDS_P2;PMS_P1;PMS_P2;Temp;Humidity;BMP_temperature;BMP_pressure;BME280_temperature;BME280_humidity;BME280_pressure;Samples;Min_cycle;Max_cycle;Signal;HPM_P1;HPM_P2
2024/02/23 00:00:05;;;;;;;6.38;1.23;;;5.90;99.90;;;;;;5035839;28;20048;-38
2024/02/23 00:02:31;;;;;;;4.90;0.77;;;6.00;99.90;;;;;;5035748;28;20148;-39
2024/02/23 00:04:57;;;;;;;6.45;2.08;;;6.10;99.90;;;;;;5035983;28;20505;-43
2024/02/23 00:07:23;;;;;;;10.07;0.85;;;6.10;99.90;;;;;;5040546;28;20029;-42
2024/02/23 00:09:49;;;;;;;8.50;1.30;;;6.10;99.90;;;;;;5054586;28;20033;-42
2024/02/23 00:12:14;;;;;;;19.73;1.38;;;6.20;99.90;;;;;;5055703;28;20040;-40
2024/02/23 00:14:40;;;;;;;3.80;0.90;;;6.20;99.90;;;;;;5055712;28;20025;-40
2024/02/23 00:17:06;;;;;;;8.63;1.10;;;6.30;99.90;;;;;;5053954;28;20100;-41
2024/02/23 00:19:32;;;;;;;7.55;1.33;;;6.30;99.90;;;;;;5054878;28;20037;-40
2024/02/23 00:21:59;;;;;;;5.50;0.88;;;6.30;99.90;;;;;;5034420;28;20112;-39
2024/02/23 00:24:25;;;;;;;15.10;2.00;;;6.40;99.90;;;;;;5035633;28;20050;-39
2024/02/23 00:26:51;;;;;;;4.85;1.27;;;6.40;99.90;;;;;;5035369;28;20075;-37
2024/02/23 00:29:17;;;;;;;3.08;0.77;;;6.40;99.90;;;;;;5035834;28;20069;-37
2024/02/23 00:31:45;;;;;;;6.18;1.08;;;6.40;99.90;;;;;;5036412;28;20025;-39
2024/02/23 00:34:13;;;;;;;7.43;0.98;;;6.50;99.90;;;;;;5035750;28;20481;-37
2024/02/23 00:36:42;;;;;;;3.88;0.68;;;6.50;99.90;;;;;;5048289;28;20036;-39
2024/02/23 00:39:08;;;;;;;6.68;1.05;;;6.50;99.90;;;;;;5055151;28;20032;-39
2024/02/23 00:41:35;;;;;;;13.27;1.27;;;6.50;99.90;;;;;;5050273;28;20013;-37
2024/02/23 00:44:01;;;;;;;4.75;0.88;;;6.50;99.90;;;;;;5034764;28;20496;-38
2024/02/23 00:46:29;;;;;;;9.65;1.45;;;6.50;99.90;;;;;;5034034;28;20022;-37
2024/02/23 00:48:54;;;;;;;3.70;0.95;;;6.60;99.90;;;;;;5035161;28;20022;-37
2024/02/23 00:51:20;;;;;;;8.18;0.80;;;6.60;99.90;;;;;;5035146;28;20113;-37
2024/02/23 00:53:46;;;;;;;11.00;1.10;;;6.70;99.90;;;;;;5035106;28;20029;-35
2024/02/23 00:56:12;;;;;;;3.28;0.50;;;6.70;99.90;;;;;;5034941;28;20041;-36
2024/02/23 00:58:38;;;;;;;7.18;1.10;;;6.70;99.90;;;;;;5052610;28;20028;-36
2024/02/23 01:01:04;;;;;;;8.18;0.90;;;6.50;99.90;;;;;;5054857;28;20025;-35
2024/02/23 01:03:30;;;;;;;5.22;0.65;;;6.50;99.90;;;;;;5054837;28;20378;-36
2024/02/23 01:05:56;;;;;;;7.57;0.60;;;6.50;99.90;;;;;;5037397;28;20037;-37
2024/02/23 01:08:21;;;;;;;2.08;0.40;;;6.40;99.90;;;;;;5034749;28;20083;-35
2024/02/23 01:10:47;;;;;;;4.75;0.95;;;6.30;99.90;;;;;;5034779;28;20037;-35
2024/02/23 01:13:14;;;;;;;6.95;0.75;;;6.20;99.90;;;;;;5047000;28;20024;-37
2024/02/23 01:15:42;;;;;;;6.40;1.30;;;6.20;99.90;;;;;;5049366;28;20470;-47
2024/02/23 01:18:07;;;;;;;5.47;0.68;;;6.00;99.90;;;;;;5034631;28;20044;-45
2024/02/23 01:20:34;;;;;;;3.75;0.77;;;5.80;99.90;;;;;;5040069;28;20025;-48
2024/02/23 01:23:00;;;;;;;4.78;1.35;;;5.60;99.90;;;;;;5053217;28;20017;-50
2024/02/23 01:25:26;;;;;;;6.80;0.90;;;5.50;99.90;;;;;;5054201;28;20440;-51
2024/02/23 01:27:51;;;;;;;4.78;0.73;;;5.30;99.90;;;;;;5054286;28;20032;-51
2024/02/23 01:30:18;;;;;;;5.07;0.80;;;5.20;99.90;;;;;;5049818;28;20021;-56
2024/02/23 01:32:47;;;;;;;1.55;0.57;;;5.20;99.90;;;;;;5034639;28;20025;-47
2024/02/23 01:35:13;;;;;;;3.60;0.90;;;5.20;99.90;;;;;;5034155;28;20112;-51
2024/02/23 01:37:39;;;;;;;5.03;0.70;;;5.30;99.90;;;;;;5034313;28;20555;-46
2024/02/23 01:40:06;;;;;;;9.73;0.63;;;5.30;99.90;;;;;;5040155;28;20100;-49
2024/02/23 01:42:31;;;;;;;5.90;1.02;;;5.40;99.90;;;;;;5052763;28;20029;-51
2024/02/23 01:44:57;;;;;;;7.57;1.27;;;5.40;99.90;;;;;;5053995;28;20075;-48
2024/02/23 01:47:28;;;;;;;15.07;1.13;;;5.40;99.90;;;;;;5038327;28;20025;-53
2024/02/23 01:49:56;;;;;;;12.30;1.00;;;5.50;99.90;;;;;;5033853;28;20072;-52
2024/02/23 01:52:22;;;;;;;4.72;0.73;;;5.60;99.90;;;;;;5033928;28;20034;-49
2024/02/23 01:54:47;;;;;;;3.95;1.10;;;5.70;99.90;;;;;;5033956;28;20025;-49
2024/02/23 01:57:14;;;;;;;3.65;0.65;;;5.80;99.90;;;;;;5032802;28;20030;-49
2024/02/23 01:59:41;;;;;;;10.07;1.00;;;5.80;99.90;;;;;;5033966;28;20542;-50
2024/02/23 02:02:06;;;;;;;14.95;1.15;;;5.80;99.90;;;;;;5033300;28;20148;-48
2024/02/23 02:04:32;;;;;;;6.00;0.90;;;5.80;99.90;;;;;;5039303;28;20075;-52
2024/02/23 02:06:59;;;;;;;8.30;1.00;;;5.80;99.90;;;;;;5051451;28;20025;-51
2024/02/23 02:09:25;;;;;;;7.65;0.98;;;5.80;99.90;;;;;;5051809;28;20111;-49
2024/02/23 02:11:51;;;;;;;12.02;0.73;;;5.80;99.90;;;;;;5053506;28;20587;-50
2024/02/23 02:14:18;;;;;;;3.35;0.73;;;5.90;99.90;;;;;;5038113;28;20029;-52
2024/02/23 02:16:44;;;;;;;1.77;0.65;;;5.90;99.90;;;;;;5033512;28;20500;-53
2024/02/23 02:19:10;;;;;;;3.88;0.82;;;5.90;99.90;;;;;;5036880;28;20100;-50
2024/02/23 02:21:37;;;;;;;1.60;0.73;;;5.90;99.90;;;;;;5033280;28;20474;-49
2024/02/23 02:24:03;;;;;;;3.92;0.80;;;5.80;99.90;;;;;;5032143;28;20064;-38
2024/02/23 02:26:29;;;;;;;13.30;0.85;;;5.80;99.90;;;;;;5033588;28;20057;-38
2024/02/23 02:28:55;;;;;;;5.57;0.52;;;5.80;99.90;;;;;;5033196;28;20075;-39
2024/02/23 02:31:21;;;;;;;5.68;0.50;;;5.70;99.90;;;;;;5033197;28;20485;-37
2024/02/23 02:33:46;;;;;;;15.55;2.05;;;5.70;99.90;;;;;;5033160;28;20496;-37
2024/02/23 02:36:12;;;;;;;7.93;0.90;;;5.70;99.90;;;;;;5034372;28;20035;-38
2024/02/23 02:38:38;;;;;;;13.32;1.20;;;5.70;99.90;;;;;;5033306;28;20049;-38
2024/02/23 02:41:04;;;;;;;15.65;1.17;;;5.80;99.90;;;;;;5031618;28;20025;-50
2024/02/23 02:43:30;;;;;;;8.27;0.93;;;5.80;99.90;;;;;;5033107;28;20390;-48
2024/02/23 02:45:56;;;;;;;3.15;0.60;;;5.80;99.90;;;;;;5033108;28;20436;-52
2024/02/23 02:48:22;;;;;;;6.05;0.63;;;5.80;99.90;;;;;;5033173;28;20036;-48
2024/02/23 02:50:49;;;;;;;7.95;1.58;;;5.70;99.90;;;;;;5032874;28;20052;-49
2024/02/23 02:53:15;;;;;;;8.80;1.63;;;5.60;99.90;;;;;;5033170;28;20458;-50
2024/02/23 02:55:42;;;;;;;10.77;2.85;;;5.60;99.90;;;;;;5035368;28;20174;-49
2024/02/23 02:58:09;;;;;;;3.10;0.90;;;5.60;99.90;;;;;;5052799;28;20029;-51
2024/02/23 03:00:34;;;;;;;3.53;1.05;;;5.50;99.90;;;;;;5042198;28;20367;-49
2024/02/23 03:03:00;;;;;;;6.82;1.02;;;5.50;99.90;;;;;;5032980;28;20017;-46
2024/02/23 03:05:26;;;;;;;9.10;1.10;;;5.60;99.90;;;;;;5045013;28;20035;-50
2024/02/23 03:07:52;;;;;;;9.10;1.25;;;5.60;99.90;;;;;;5032582;28;20104;-51
2024/02/23 03:10:17;;;;;;;4.40;0.77;;;5.50;99.90;;;;;;5047839;28;20074;-51
2024/02/23 03:12:43;;;;;;;2.20;0.82;;;5.50;99.90;;;;;;5046502;28;20022;-50
2024/02/23 03:15:12;;;;;;;7.07;0.90;;;5.60;99.90;;;;;;5035820;28;20034;-48
2024/02/23 03:17:38;;;;;;;6.68;0.90;;;5.50;99.90;;;;;;5032949;28;20025;-46
2024/02/23 03:20:11;;;;;;;6.53;0.95;;;5.50;99.90;;;;;;5032716;28;20515;-48
2024/02/23 03:22:37;;;;;;;6.72;2.20;;;5.50;99.90;;;;;;5031392;28;20040;-52
2024/02/23 03:25:09;;;;;;;5.75;1.10;;;5.60;99.90;;;;;;5032535;28;20502;-51
2024/02/23 03:27:36;;;;;;;4.03;1.20;;;5.60;99.90;;;;;;5032831;28;20029;-51
2024/02/23 03:30:04;;;;;;;6.70;1.27;;;5.50;99.90;;;;;;5032402;28;20044;-50
2024/02/23 03:32:35;;;;;;;7.15;0.93;;;5.50;99.90;;;;;;5034610;28;20445;-48
2024/02/23 03:35:02;;;;;;;6.60;1.05;;;5.50;99.90;;;;;;5052611;28;20021;-48
2024/02/23 03:37:28;;;;;;;9.40;1.13;;;5.60;99.90;;;;;;5033472;28;20490;-46
2024/02/23 03:39:54;;;;;;;8.63;0.93;;;5.60;99.90;;;;;;5032376;28;20040;-49
2024/02/23 03:42:19;;;;;;;7.05;1.08;;;5.50;99.90;;;;;;5032383;28;20449;-51
2024/02/23 03:44:45;;;;;;;4.10;1.25;;;5.50;99.90;;;;;;5032457;28;20037;-51
2024/02/23 03:47:12;;;;;;;0.85;0.52;;;5.40;99.90;;;;;;5032613;28;20025;-36
2024/02/23 03:49:37;;;;;;;7.55;2.53;;;5.40;99.90;;;;;;5032307;28;20066;-37
2024/02/23 03:52:04;;;;;;;7.53;1.15;;;5.40;99.90;;;;;;5032998;28;20029;-36
2024/02/23 03:54:31;;;;;;;7.57;0.80;;;5.30;99.90;;;;;;5031119;28;20033;-36
2024/02/23 03:56:57;;;;;;;6.97;0.90;;;5.30;99.90;;;;;;5047953;28;20026;-35
2024/02/23 03:59:23;;;;;;;3.72;0.95;;;5.30;99.90;;;;;;5052115;28;20095;-35
2024/02/23 04:01:49;;;;;;;1.15;0.47;;;5.30;99.90;;;;;;5036264;28;20025;-35
2024/02/23 04:04:15;;;;;;;5.75;0.90;;;5.30;99.90;;;;;;5035838;28;20036;-45
2024/02/23 04:06:40;;;;;;;6.63;1.00;;;5.20;99.90;;;;;;5051302;28;20025;-46
2024/02/23 04:09:08;;;;;;;7.30;1.08;;;5.20;99.90;;;;;;5050428;28;20024;-51
2024/02/23 04:11:34;;;;;;;8.93;0.85;;;5.30;99.90;;;;;;5052372;28;20443;-52
2024/02/23 04:14:00;;;;;;;7.68;1.02;;;5.30;99.90;;;;;;5052091;28;20036;-47
2024/02/23 04:16:26;;;;;;;6.57;1.10;;;5.30;99.90;;;;;;5050428;28;20477;-51
2024/02/23 04:18:53;;;;;;;7.63;0.77;;;5.30;99.90;;;;;;5052054;28;20473;-45
2024/02/23 04:21:19;;;;;;;7.07;1.13;;;5.30;99.90;;;;;;5044684;28;20120;-49
2024/02/23 04:23:44;;;;;;;12.52;1.30;;;5.30;99.90;;;;;;5035950;28;20060;-49
2024/02/23 04:26:10;;;;;;;10.23;1.10;;;5.30;99.90;;;;;;5046543;28;20095;-50
2024/02/23 04:28:39;;;;;;;4.15;1.00;;;5.30;99.90;;;;;;5055501;28;20109;-35
2024/02/23 04:31:04;;;;;;;5.53;0.95;;;5.20;99.90;;;;;;5055474;28;20575;-35
2024/02/23 04:33:30;;;;;;;3.25;1.25;;;5.20;99.90;;;;;;5054075;28;20072;-35
2024/02/23 04:35:56;;;;;;;7.50;1.25;;;5.10;99.90;;;;;;5052211;28;20060;-37
2024/02/23 04:38:21;;;;;;;15.02;1.48;;;5.10;99.90;;;;;;5035420;28;20489;-35
2024/02/23 04:40:47;;;;;;;3.03;1.90;;;5.10;99.90;;;;;;5035227;28;20029;-35
2024/02/23 04:45:57;;;;;;;3.20;1.05;;;5.20;99.90;;;;;;5035560;28;20044;-35
2024/02/23 04:48:23;;;;;;;8.30;1.30;;;5.20;99.90;;;;;;5035110;28;20029;-36
2024/02/23 04:50:48;;;;;;;4.13;0.95;;;5.30;99.90;;;;;;5035035;28;20036;-36
2024/02/23 04:53:14;;;;;;;9.27;1.23;;;5.30;99.90;;;;;;5033885;28;20036;-35
2024/02/23 04:55:40;;;;;;;5.97;1.27;;;5.30;99.90;;;;;;5035188;28;20375;-36
2024/02/23 04:58:06;;;;;;;4.00;1.27;;;5.40;99.90;;;;;;5054571;28;20086;-35
2024/02/23 05:00:33;;;;;;;6.38;1.48;;;5.50;99.90;;;;;;5054835;28;20045;-35
2024/02/23 05:03:03;;;;;;;1.75;0.93;;;5.60;99.90;;;;;;5035593;28;20022;-47
2024/02/23 05:05:29;;;;;;;5.15;1.05;;;5.60;99.90;;;;;;5033510;28;20037;-45
2024/02/23 05:07:55;;;;;;;2.95;1.38;;;5.60;99.90;;;;;;5034803;28;20053;-35
2024/02/23 05:10:22;;;;;;;8.65;1.63;;;5.60;99.90;;;;;;5034760;28;20065;-35
2024/02/23 05:12:48;;;;;;;10.18;2.60;;;5.70;99.90;;;;;;5034685;28;20489;-36
2024/02/23 05:15:14;;;;;;;5.15;1.70;;;5.70;99.90;;;;;;5034997;28;20030;-36
2024/02/23 05:17:39;;;;;;;12.65;1.88;;;5.70;99.90;;;;;;5034713;28;20033;-36
2024/02/23 05:20:08;;;;;;;7.93;1.20;;;5.70;99.90;;;;;;5041761;28;20025;-37
2024/02/23 05:22:34;;;;;;;7.25;1.75;;;5.70;99.90;;;;;;5053256;28;20033;-35
2024/02/23 05:24:59;;;;;;;7.68;4.13;;;5.70;99.90;;;;;;5046501;28;20120;-37
2024/02/23 05:27:27;;;;;;;6.07;1.70;;;5.80;99.90;;;;;;5034427;28;20053;-45
2024/02/23 05:29:53;;;;;;;2.90;1.90;;;5.80;99.90;;;;;;5033152;28;20452;-36
2024/02/23 05:32:19;;;;;;;1.88;1.20;;;5.80;99.90;;;;;;5034370;28;20116;-35
2024/02/23 05:34:45;;;;;;;11.02;1.80;;;5.80;99.90;;;;;;5049598;28;20025;-36
2024/02/23 05:37:10;;;;;;;7.93;1.85;;;5.70;99.90;;;;;;5041563;28;20025;-36
2024/02/23 05:39:37;;;;;;;7.15;1.75;;;5.80;99.90;;;;;;5032585;28;20513;-37
2024/02/23 05:42:04;;;;;;;7.07;1.98;;;5.80;99.90;;;;;;5034474;28;20045;-35
2024/02/23 05:44:29;;;;;;;3.33;1.90;;;5.80;99.90;;;;;;5034114;28;20022;-45
2024/02/23 05:46:55;;;;;;;5.78;2.00;;;5.80;99.90;;;;;;5050072;28;20428;-36
2024/02/23 05:49:20;;;;;;;6.05;1.65;;;5.80;99.90;;;;;;5044243;28;20389;-36
2024/02/23 05:51:46;;;;;;;4.00;1.50;;;5.90;99.90;;;;;;5033912;28;20030;-37
2024/02/23 05:54:15;;;;;;;11.57;2.60;;;5.90;99.90;;;;;;5034308;28;20493;-52
2024/02/23 05:56:40;;;;;;;10.15;1.60;;;6.00;99.90;;;;;;5033912;28;20509;-52
2024/02/23 05:59:06;;;;;;;5.38;2.28;;;5.90;99.90;;;;;;5034149;28;20044;-52
2024/02/23 06:01:32;;;;;;;1.80;1.52;;;5.90;99.90;;;;;;5034091;28;20026;-52
2024/02/23 06:03:57;;;;;;;5.65;2.05;;;5.90;99.90;;;;;;5033827;28;20022;-52
2024/02/23 06:06:23;;;;;;;3.38;1.70;;;5.90;99.90;;;;;;5033727;28;20036;-53
2024/02/23 06:08:49;;;;;;;1.95;1.65;;;5.90;99.90;;;;;;5039428;28;20540;-55
2024/02/23 06:11:15;;;;;;;12.90;2.35;;;5.90;99.90;;;;;;5053533;28;20366;-56
2024/02/23 06:13:41;;;;;;;4.97;2.03;;;6.00;99.90;;;;;;5053546;28;20032;-52
2024/02/23 06:16:11;;;;;;;9.32;1.75;;;5.90;99.90;;;;;;5053683;28;20025;-51
2024/02/23 06:18:38;;;;;;;5.45;1.50;;;6.00;99.90;;;;;;5052237;28;20029;-51
2024/02/23 06:21:11;;;;;;;7.22;1.60;;;5.90;99.90;;;;;;5033334;28;20033;-53
2024/02/23 06:23:37;;;;;;;4.20;1.30;;;6.00;99.90;;;;;;5033491;28;20032;-53
2024/02/23 06:26:03;;;;;;;6.70;1.73;;;6.00;99.90;;;;;;5033241;28;20054;-54
2024/02/23 06:28:28;;;;;;;3.75;1.00;;;6.00;99.90;;;;;;5033297;28;20052;-53
2024/02/23 06:30:54;;;;;;;5.03;1.65;;;6.00;99.90;;;;;;5033284;28;20130;-51
2024/02/23 06:33:19;;;;;;;8.43;1.30;;;6.00;99.90;;;;;;5033558;28;20021;-57
2024/02/23 06:35:45;;;;;;;3.65;1.38;;;6.00;99.90;;;;;;5033122;28;20033;-52
2024/02/23 06:38:11;;;;;;;9.95;1.60;;;6.00;99.90;;;;;;5035511;28;20091;-49
2024/02/23 06:40:36;;;;;;;1.73;1.10;;;5.90;99.90;;;;;;5033056;28;20085;-53
2024/02/23 06:43:02;;;;;;;2.47;1.25;;;5.90;99.90;;;;;;5032383;28;20025;-53
2024/02/23 06:45:28;;;;;;;4.93;1.98;;;5.90;99.90;;;;;;5033082;28;20033;-54
2024/02/23 06:47:53;;;;;;;5.13;1.35;;;5.90;99.90;;;;;;5033156;28;20029;-51
2024/02/23 06:50:19;;;;;;;9.70;1.33;;;5.90;99.90;;;;;;5032907;28;20029;-54
2024/02/23 06:52:45;;;;;;;8.75;1.23;;;5.90;99.90;;;;;;5033052;28;20040;-53
2024/02/23 06:55:10;;;;;;;1.85;1.08;;;5.90;99.90;;;;;;5036815;28;20039;-54
2024/02/23 06:57:36;;;;;;;2.78;0.93;;;6.00;99.90;;;;;;5040078;28;20567;-49
2024/02/23 07:00:02;;;;;;;4.45;1.10;;;6.00;99.90;;;;;;5032764;28;20049;-54
2024/02/23 07:02:31;;;;;;;7.50;1.35;;;6.00;99.90;;;;;;5032755;28;20108;-54
2024/02/23 07:04:58;;;;;;;8.23;1.42;;;5.90;99.90;;;;;;5032907;28;20104;-52
2024/02/23 07:07:24;;;;;;;4.27;0.90;;;6.00;99.90;;;;;;5032352;28;20482;-39
2024/02/23 07:09:50;;;;;;;18.92;2.22;;;6.00;99.90;;;;;;5032349;28;20040;-38
2024/02/23 07:12:15;;;;;;;9.77;1.42;;;6.00;99.90;;;;;;5032731;28;20026;-44
2024/02/23 07:14:41;;;;;;;5.40;1.15;;;6.10;99.90;;;;;;5032718;28;20041;-40
2024/02/23 07:17:08;;;;;;;5.93;1.27;;;6.20;99.90;;;;;;5032700;28;20504;-39
2024/02/23 07:19:33;;;;;;;3.15;1.80;;;6.20;99.90;;;;;;5032770;28;20486;-40
2024/02/23 07:21:59;;;;;;;5.70;1.13;;;6.30;99.90;;;;;;5032677;28;20071;-39
2024/02/23 07:24:24;;;;;;;4.43;1.05;;;6.20;99.90;;;;;;5032442;28;20041;-38
2024/02/23 07:26:50;;;;;;;7.53;1.73;;;6.30;99.90;;;;;;5032515;28;20108;-40
2024/02/23 07:29:16;;;;;;;9.27;1.08;;;6.30;99.90;;;;;;5038935;28;20021;-39
2024/02/23 07:31:41;;;;;;;4.88;0.95;;;6.30;99.90;;;;;;5032347;28;20037;-38
2024/02/23 07:34:08;;;;;;;1.98;0.70;;;6.40;99.90;;;;;;5039763;28;20299;-43
2024/02/23 07:36:34;;;;;;;5.88;0.80;;;6.40;99.90;;;;;;5036332;28;20466;-45
2024/02/23 07:38:59;;;;;;;5.60;0.95;;;6.40;99.90;;;;;;5052239;28;20029;-43
2024/02/23 07:41:25;;;;;;;16.80;1.08;;;6.40;99.90;;;;;;5052347;28;20064;-42
2024/02/23 07:43:51;;;;;;;5.82;1.10;;;6.50;99.90;;;;;;5050627;28;20061;-42
2024/02/23 07:46:16;;;;;;;3.05;0.55;;;6.50;99.90;;;;;;5052583;28;20033;-39
2024/02/23 07:48:42;;;;;;;3.47;0.63;;;6.50;99.90;;;;;;5050511;28;20029;-39
2024/02/23 07:51:08;;;;;;;7.30;0.57;;;6.50;99.90;;;;;;5052580;28;20025;-39
2024/02/23 07:53:34;;;;;;;2.28;0.55;;;6.40;99.90;;;;;;5035320;28;20028;-37
2024/02/23 07:56:02;;;;;;;6.38;1.48;;;6.40;99.90;;;;;;5039268;28;20526;-39
2024/02/23 07:58:28;;;;;;;12.07;1.00;;;6.30;99.90;;;;;;5036380;28;20355;-44
2024/02/23 08:00:54;;;;;;;9.10;0.82;;;6.40;99.90;;;;;;5036033;28;20083;-38
2024/02/23 08:03:19;;;;;;;6.55;0.75;;;6.40;99.90;;;;;;5043655;28;20497;-40
2024/02/23 08:05:45;;;;;;;5.32;0.85;;;6.40;99.90;;;;;;5054821;28;20034;-41
2024/02/23 08:08:11;;;;;;;5.07;0.43;;;6.30;99.90;;;;;;5055868;28;20025;-52
2024/02/23 08:10:36;;;;;;;8.40;1.45;;;6.30;99.90;;;;;;5052693;28;20478;-51
2024/02/23 08:13:02;;;;;;;3.42;0.47;;;6.30;99.90;;;;;;5039159;28;20041;-55
2024/02/23 08:15:28;;;;;;;15.05;1.40;;;6.30;99.90;;;;;;5036001;28;20030;-41
2024/02/23 08:17:54;;;;;;;1.35;0.60;;;6.30;99.90;;;;;;5036956;28;20075;-38
2024/02/23 08:20:19;;;;;;;2.75;0.88;;;6.30;99.90;;;;;;5052745;28;20057;-42
2024/02/23 08:22:45;;;;;;;5.10;1.10;;;6.30;99.90;;;;;;5055904;28;20467;-41
2024/02/23 08:25:11;;;;;;;5.75;0.77;;;6.20;99.90;;;;;;5055638;28;20079;-40
2024/02/23 08:27:36;;;;;;;3.25;1.27;;;6.20;99.90;;;;;;5054623;28;20043;-38
2024/02/23 08:30:03;;;;;;;3.22;0.88;;;6.30;99.90;;;;;;5055839;28;20041;-39
2024/02/23 08:32:28;;;;;;;6.32;1.58;;;6.30;99.90;;;;;;5043445;28;20021;-37
2024/02/23 08:34:59;;;;;;;3.67;1.17;;;6.30;99.90;;;;;;5035455;28;20132;-37
2024/02/23 08:37:25;;;;;;;13.85;2.63;;;6.30;99.90;;;;;;5042490;28;20034;-38
2024/02/23 08:39:51;;;;;;;7.07;1.10;;;6.30;99.90;;;;;;5035348;28;20440;-38
2024/02/23 08:42:16;;;;;;;2.25;0.88;;;6.40;99.90;;;;;;5035375;28;20049;-38
2024/02/23 08:44:42;;;;;;;3.47;1.17;;;6.30;99.90;;;;;;5035292;28;20022;-37
2024/02/23 08:47:08;;;;;;;15.70;1.40;;;6.30;99.90;;;;;;5053327;28;20028;-36
2024/02/23 08:49:33;;;;;;;5.47;0.85;;;6.30;99.90;;;;;;5053814;28;20040;-36
2024/02/23 08:51:59;;;;;;;9.35;1.52;;;6.30;99.90;;;;;;5050109;28;20382;-40
2024/02/23 08:54:25;;;;;;;6.03;0.93;;;6.30;99.90;;;;;;5034156;28;20025;-36
2024/02/23 08:56:51;;;;;;;5.47;1.17;;;6.40;99.90;;;;;;5038675;28;20500;-36
2024/02/23 08:59:16;;;;;;;5.03;1.20;;;6.40;99.90;;;;;;5038202;28;20031;-38
2024/02/23 09:01:44;;;;;;;4.90;1.02;;;6.40;99.90;;;;;;5053119;28;20021;-39
2024/02/23 09:04:10;;;;;;;11.73;2.53;;;6.50;99.90;;;;;;5054653;28;20474;-40
2024/02/23 09:06:35;;;;;;;4.35;1.00;;;6.50;99.90;;;;;;5035855;28;20083;-37
2024/02/23 09:09:01;;;;;;;10.63;1.27;;;6.50;99.90;;;;;;5046153;28;20033;-37
2024/02/23 09:11:26;;;;;;;3.28;0.70;;;6.50;99.90;;;;;;5054724;28;20385;-37
2024/02/23 09:13:52;;;;;;;2.95;0.85;;;6.50;99.90;;;;;;5053387;28;20116;-39
2024/02/23 09:16:18;;;;;;;4.68;1.33;;;6.50;99.90;;;;;;5053014;28;20039;-38
2024/02/23 09:18:44;;;;;;;3.47;0.82;;;6.40;99.90;;;;;;5052134;28;20159;-40
2024/02/23 09:21:10;;;;;;;5.50;0.82;;;6.40;99.90;;;;;;5035358;28;20378;-41
2024/02/23 09:23:35;;;;;;;2.45;0.90;;;6.40;99.90;;;;;;5054729;28;20442;-43
2024/02/23 09:26:01;;;;;;;4.22;0.90;;;6.40;99.90;;;;;;5050965;28;20124;-38
2024/02/23 09:28:29;;;;;;;14.20;1.13;;;6.40;99.90;;;;;;5045552;28;20388;-39
2024/02/23 09:30:55;;;;;;;;;;;6.50;99.90;;;;;;5048687;28;20033;-39
2024/02/23 09:33:20;;;;;;;3.40;1.02;;;6.50;99.90;;;;;;5042497;28;20406;-40
2024/02/23 09:35:46;;;;;;;8.13;1.10;;;6.50;99.90;;;;;;5052264;28;20024;-40
2024/02/23 09:38:12;;;;;;;3.17;1.73;;;6.60;99.90;;;;;;5052414;28;20060;-42
2024/02/23 09:40:39;;;;;;;4.95;1.10;;;6.70;99.90;;;;;;5037475;28;20029;-40
2024/02/23 09:43:08;;;;;;;9.05;1.25;;;6.80;99.90;;;;;;5041896;28;20016;-43
2024/02/23 09:45:33;;;;;;;5.90;1.35;;;6.80;99.90;;;;;;5051133;28;20020;-37
2024/02/23 09:48:03;;;;;;;7.20;1.00;;;6.80;99.90;;;;;;5054062;28;20496;-39
2024/02/23 09:50:30;;;;;;;8.93;0.77;;;6.90;99.90;;;;;;5040492;28;20477;-39
2024/02/23 09:52:58;;;;;;;5.85;1.20;;;7.20;99.90;;;;;;5043124;28;20547;-37
2024/02/23 09:55:23;;;;;;;2.10;0.90;;;7.40;99.90;;;;;;5032432;28;20059;-40
2024/02/23 09:57:54;;;;;;;5.00;0.73;;;7.50;99.90;;;;;;5037403;28;20064;-45
2024/02/23 10:00:21;;;;;;;3.17;0.73;;;7.60;99.90;;;;;;5051895;28;20086;-41
2024/02/23 10:02:47;;;;;;;2.25;0.82;;;7.60;99.90;;;;;;5053708;28;20060;-38
2024/02/23 10:05:15;;;;;;;1.98;1.10;;;7.60;99.90;;;;;;5053706;28;20032;-37
2024/02/23 10:07:41;;;;;;;7.05;1.60;;;7.60;99.90;;;;;;5041113;28;20486;-37
2024/02/23 10:10:08;;;;;;;8.40;1.15;;;7.60;99.90;;;;;;5053604;28;20081;-41
2024/02/23 10:12:35;;;;;;;12.57;1.83;;;7.40;99.90;;;;;;5036746;28;20065;-48
2024/02/23 10:15:03;;;;;;;4.10;1.13;;;7.40;99.90;;;;;;5037007;28;20029;-37
2024/02/23 10:17:30;;;;;;;3.55;0.70;;;7.30;99.90;;;;;;5042455;28;20029;-38
2024/02/23 10:19:57;;;;;;;10.35;1.50;;;7.30;99.90;;;;;;5033326;28;20033;-40
2024/02/23 10:22:24;;;;;;;5.03;1.02;;;7.40;99.90;;;;;;5033748;28;20500;-43
2024/02/23 10:24:51;;;;;;;6.72;0.93;;;7.40;99.90;;;;;;5034455;28;20046;-39
2024/02/23 10:27:17;;;;;;;7.22;1.08;;;7.40;99.90;;;;;;5033507;28;20029;-38
2024/02/23 10:29:42;;;;;;;3.38;0.98;;;7.40;99.90;;;;;;5033130;28;20569;-37
2024/02/23 10:32:14;;;;;;;9.38;1.50;;;7.50;99.90;;;;;;5033538;28;20049;-41
2024/02/23 10:34:43;;;;;;;3.78;1.33;;;7.50;99.90;;;;;;5033312;28;20084;-40
2024/02/23 10:37:09;;;;;;;6.95;1.13;;;7.60;99.90;;;;;;5033276;28;20026;-39
2024/02/23 10:39:39;;;;;;;6.65;1.00;;;7.60;99.90;;;;;;5034787;28;20068;-40
2024/02/23 10:42:09;;;;;;;5.22;1.20;;;7.60;99.90;;;;;;5037580;28;20070;-43
2024/02/23 10:44:35;;;;;;;5.35;0.70;;;7.70;99.90;;;;;;5051247;28;20021;-39
2024/02/23 10:47:02;;;;;;;4.93;1.85;;;7.60;99.90;;;;;;5051223;28;20029;-43
2024/02/23 10:49:29;;;;;;;7.07;1.38;;;7.70;99.90;;;;;;5052831;28;20031;-38
2024/02/23 10:51:56;;;;;;;6.60;1.70;;;7.80;99.90;;;;;;5052778;28;20068;-37
2024/02/23 10:54:22;;;;;;;4.88;1.63;;;7.90;99.90;;;;;;5052034;28;20036;-42
2024/02/23 10:56:50;;;;;;;3.33;1.05;;;7.90;99.90;;;;;;5032786;28;20037;-39
2024/02/23 10:59:18;;;;;;;3.63;1.00;;;7.90;99.90;;;;;;5032560;28;20053;-40
2024/02/23 11:01:53;;;;;;;;;;;8.00;99.90;;;;;;5033169;28;20037;-40
2024/02/23 11:04:21;;;;;;;4.05;1.27;;;8.10;99.90;;;;;;5032290;28;19920;-39
2024/02/23 11:06:50;;;;;;;2.97;1.20;;;8.10;99.90;;;;;;5050998;28;20500;-39
2024/02/23 11:09:16;;;;;;;2.60;1.10;;;8.20;99.90;;;;;;5036428;28;20108;-42
2024/02/23 11:11:57;;;;;;;4.85;1.10;;;8.20;99.90;;;;;;5048736;28;20557;-40
2024/02/23 11:14:32;;;;;;;3.78;1.08;;;8.40;99.90;;;;;;5048853;28;20108;-41
2024/02/23 11:16:58;;;;;;;8.65;1.27;;;8.40;99.90;;;;;;5032404;28;20029;-44
2024/02/23 11:19:35;;;;;;;4.80;1.00;;;8.40;99.90;;;;;;5032500;28;20046;-41
2024/02/23 11:22:02;;;;;;;1.70;1.60;;;8.50;99.90;;;;;;5039302;28;20021;-41
2024/02/23 11:24:32;;;;;;;3.58;1.13;;;8.60;99.90;;;;;;5050438;28;20711;-43
2024/02/23 11:26:58;;;;;;;5.00;1.13;;;8.80;99.90;;;;;;5048985;28;20518;-40
2024/02/23 11:29:29;;;;;;;3.50;0.90;;;8.70;99.90;;;;;;5035347;28;20025;-41
2024/02/23 11:32:00;;;;;;;6.10;1.60;;;8.70;99.90;;;;;;5052304;28;20422;-43
2024/02/23 11:34:30;;;;;;;5.25;1.15;;;8.60;99.90;;;;;;5056802;28;20021;-46
2024/02/23 11:36:59;;;;;;;9.70;1.30;;;8.60;99.90;;;;;;5056727;28;20142;-40
2024/02/23 11:39:26;;;;;;;4.68;1.23;;;8.70;99.90;;;;;;5055414;28;20448;-47
2024/02/23 11:41:52;;;;;;;6.15;1.10;;;8.60;99.90;;;;;;5055896;28;20029;-42
2024/02/23 11:44:18;;;;;;;3.78;1.33;;;8.70;99.90;;;;;;5056651;28;20031;-41
2024/02/23 11:46:45;;;;;;;4.70;1.48;;;8.70;99.90;;;;;;5039081;28;20013;-54
2024/02/23 11:49:11;;;;;;;3.60;0.90;;;8.80;99.90;;;;;;5035012;28;20512;-55
2024/02/23 11:51:36;;;;;;;2.75;1.13;;;8.90;99.90;;;;;;5036318;28;20100;-56
2024/02/23 11:54:03;;;;;;;7.25;1.88;;;9.00;99.90;;;;;;5036352;28;20421;-55
2024/02/23 11:56:29;;;;;;;2.03;1.00;;;8.90;99.90;;;;;;5035879;28;20017;-56
2024/02/23 11:58:55;;;;;;;2.58;0.90;;;8.80;99.90;;;;;;5036174;28;20094;-57
2024/02/23 12:01:22;;;;;;;4.95;1.08;;;8.70;99.90;;;;;;5051558;28;20556;-57
2024/02/23 12:03:48;;;;;;;1.58;0.98;;;8.60;99.90;;;;;;5055940;28;20025;-56
2024/02/23 12:06:17;;;;;;;4.38;1.85;;;8.60;99.90;;;;;;5041374;28;20477;-56
2024/02/23 12:08:45;;;;;;;2.35;1.13;;;8.70;99.90;;;;;;5045708;28;20014;-56
2024/02/23 12:11:11;;;;;;;8.53;1.83;;;8.70;99.90;;;;;;5051333;28;20025;-57
2024/02/23 12:13:37;;;;;;;1.55;0.93;;;8.70;99.90;;;;;;5055738;28;20275;-56
2024/02/23 12:16:03;;;;;;;3.25;1.00;;;8.80;99.90;;;;;;5053908;28;20033;-56
2024/02/23 12:18:30;;;;;;;2.15;1.30;;;8.80;99.90;;;;;;5053822;28;20032;-56
2024/02/23 12:21:04;;;;;;;5.50;1.30;;;8.80;99.90;;;;;;5052377;28;20061;-58
2024/02/23 12:23:43;;;;;;;9.25;1.50;;;8.90;99.90;;;;;;5038532;28;20104;-56
2024/02/23 12:26:15;;;;;;;1.58;1.20;;;8.90;99.90;;;;;;5055469;28;20055;-55
2024/02/23 12:28:42;;;;;;;2.03;1.08;;;8.90;99.90;;;;;;5055728;28;20469;-56
2024/02/23 12:31:07;;;;;;;3.55;0.80;;;9.00;99.90;;;;;;5054050;28;20029;-56
2024/02/23 12:33:35;;;;;;;3.42;0.95;;;9.00;99.90;;;;;;5055600;28;20021;-56
2024/02/23 12:36:02;;;;;;;1.88;0.98;;;8.90;99.90;;;;;;5045331;28;20025;-57
2024/02/23 12:38:28;;;;;;;2.80;1.10;;;8.90;99.90;;;;;;5035460;28;20405;-58
2024/02/23 12:40:54;;;;;;;4.18;0.75;;;9.10;99.90;;;;;;5034418;28;20776;-57
2024/02/23 12:43:21;;;;;;;5.25;0.80;;;9.10;99.90;;;;;;5035055;28;20028;-55
2024/02/23 12:45:51;;;;;;;4.35;1.05;;;9.10;99.90;;;;;;5042958;28;20036;-56
2024/02/23 12:48:17;;;;;;;3.20;1.30;;;9.10;99.90;;;;;;5054961;28;20040;-56
2024/02/23 12:50:44;;;;;;;1.88;1.00;;;9.10;99.90;;;;;;5054971;28;20487;-55
2024/02/23 12:53:37;;;;;;;5.60;1.77;;;9.10;99.90;;;;;;5055029;28;20024;-55